Time;durP1;ratioP1;P1;durP2;ratioP2;P2;SDS_P1;SDS_P2;PMS_P1;PMS_P2;Temp;Humidity;BMP_temperature;BMP_pressure;BME280_temperature;BME280_humidity;BME280_pressure;Samples;Min_cycle;Max_cycle;Signal;HPM_P1;HPM_P2
2021/08/31 00:00:45;;;;;;;8.50;6.40;;;14.90;99.90;;;;;;4991777;28;20454;-61
2021/08/31 00:03:13;;;;;;;9.60;6.87;;;15.00;99.90;;;;;;4992039;28;20451;-62
2021/08/31 00:05:40;;;;;;;8.80;6.90;;;15.30;99.90;;;;;;4991810;28;20556;-62
2021/08/31 00:08:07;;;;;;;10.13;7.20;;;15.20;99.90;;;;;;4991849;28;20477;-61
2021/08/31 00:10:35;;;;;;;8.10;6.40;;;14.90;99.90;;;;;;4991754;28;20482;-61
2021/08/31 00:13:01;;;;;;;10.47;6.90;;;14.90;99.90;;;;;;4991976;28;20541;-62
2021/08/31 00:15:29;;;;;;;9.70;6.90;;;14.90;99.90;;;;;;4991911;28;20471;-61
2021/08/31 00:18:00;;;;;;;9.73;7.50;;;14.80;99.90;;;;;;4992331;28;20504;-62
2021/08/31 00:20:28;;;;;;;10.83;8.20;;;14.80;99.90;;;;;;4991527;28;20541;-62
2021/08/31 00:22:55;;;;;;;9.67;7.90;;;14.90;99.90;;;;;;4992003;28;20875;-62
2021/08/31 00:25:23;;;;;;;10.23;7.17;;;15.00;99.90;;;;;;4991337;28;20474;-61
2021/08/31 00:27:50;;;;;;;9.60;7.60;;;15.00;99.90;;;;;;4991928;28;20501;-62
2021/08/31 00:30:17;;;;;;;9.03;7.03;;;15.00;99.90;;;;;;4991272;28;20880;-63
2021/08/31 00:32:44;;;;;;;11.30;7.90;;;15.00;99.90;;;;;;4992038;28;20508;-62
2021/08/31 00:35:11;;;;;;;7.53;6.00;;;15.00;99.90;;;;;;4991099;28;20470;-62
2021/08/31 00:37:40;;;;;;;5.77;4.63;;;15.00;99.90;;;;;;4991792;28;20540;-61
2021/08/31 00:40:10;;;;;;;5.33;4.83;;;15.00;99.90;;;;;;4991567;28;20525;-62
2021/08/31 00:42:37;;;;;;;5.47;4.47;;;14.90;99.90;;;;;;4991913;28;20455;-62
2021/08/31 00:45:07;;;;;;;5.03;4.30;;;14.90;99.90;;;;;;4991175;28;20521;-62
2021/08/31 00:47:34;;;;;;;4.67;3.70;;;15.00;99.90;;;;;;4993442;28;20504;-61
2021/08/31 00:50:04;;;;;;;5.57;4.17;;;15.00;99.90;;;;;;4995076;28;20895;-62
2021/08/31 00:52:31;;;;;;;3.73;3.43;;;14.90;99.90;;;;;;4995083;28;20929;-62
2021/08/31 00:54:59;;;;;;;3.77;3.03;;;14.80;99.90;;;;;;4994664;28;21034;-62
2021/08/31 00:57:27;;;;;;;5.53;3.87;;;14.80;99.90;;;;;;4994951;28;20485;-62
2021/08/31 00:59:54;;;;;;;4.10;3.17;;;14.80;99.90;;;;;;4994618;28;20525;-63
2021/08/31 01:02:21;;;;;;;7.80;4.37;;;14.60;99.90;;;;;;4993959;28;20951;-62
2021/08/31 01:04:48;;;;;;;10.17;4.20;;;14.60;99.90;;;;;;4994789;28;20948;-62
2021/08/31 01:07:15;;;;;;;6.73;4.07;;;14.60;99.90;;;;;;4994639;28;20881;-62
2021/08/31 01:09:44;;;;;;;8.00;4.43;;;14.60;99.90;;;;;;4994374;28;20504;-61
2021/08/31 01:12:13;;;;;;;4.70;3.40;;;14.50;99.90;;;;;;4994204;28;20536;-62
2021/08/31 01:14:40;;;;;;;5.07;3.60;;;14.40;99.90;;;;;;4994756;28;20454;-62
2021/08/31 01:17:08;;;;;;;5.20;3.40;;;14.50;99.90;;;;;;4994152;28;20540;-62
2021/08/31 01:19:35;;;;;;;5.20;3.17;;;14.40;99.90;;;;;;4994289;28;20458;-62
2021/08/31 01:22:05;;;;;;;4.33;3.40;;;14.50;99.90;;;;;;4994131;28;20455;-62
2021/08/31 01:24:32;;;;;;;3.73;3.00;;;14.50;99.90;;;;;;4994410;28;20485;-62
2021/08/31 01:27:01;;;;;;;4.60;2.90;;;14.50;99.90;;;;;;4994411;28;20471;-62
2021/08/31 01:29:29;;;;;;;4.00;2.93;;;14.50;99.90;;;;;;4994070;28;20459;-62
2021/08/31 01:31:56;;;;;;;2.97;2.67;;;14.50;99.90;;;;;;4993522;28;20455;-62
2021/08/31 01:34:23;;;;;;;4.13;3.10;;;14.60;99.90;;;;;;4994183;28;20489;-62
2021/08/31 01:36:50;;;;;;;7.93;2.80;;;14.50;99.90;;;;;;4994404;28;20512;-62
2021/08/31 01:39:17;;;;;;;4.90;3.33;;;14.50;99.90;;;;;;4994091;28;20870;-62
2021/08/31 01:41:44;;;;;;;3.70;3.17;;;14.50;99.90;;;;;;4993988;28;20450;-62
2021/08/31 01:44:13;;;;;;;4.90;3.50;;;14.60;99.90;;;;;;4994245;28;20508;-62
2021/08/31 01:46:40;;;;;;;4.80;3.77;;;14.50;99.90;;;;;;4992818;28;21011;-62
2021/08/31 01:49:07;;;;;;;4.90;3.10;;;14.50;99.90;;;;;;4993623;28;20812;-62
2021/08/31 01:51:34;;;;;;;4.00;3.23;;;14.50;99.90;;;;;;4993548;28;20454;-62
2021/08/31 01:54:02;;;;;;;4.60;3.10;;;14.60;99.90;;;;;;4993966;28;20873;-62
2021/08/31 01:56:28;;;;;;;4.17;3.40;;;14.60;99.90;;;;;;4993702;28;20482;-62
2021/08/31 01:58:55;;;;;;;4.80;3.30;;;14.60;99.90;;;;;;4992772;28;20454;-62
2021/08/31 02:01:24;;;;;;;4.93;3.30;;;14.60;99.90;;;;;;4993724;28;20451;-62
2021/08/31 02:03:51;;;;;;;3.37;3.07;;;14.60;99.90;;;;;;4976799;28;20529;-61
2021/08/31 02:06:18;;;;;;;4.37;3.40;;;14.60;99.90;;;;;;4992974;28;21057;-62
2021/08/31 02:08:45;;;;;;;4.83;3.40;;;14.60;99.90;;;;;;4993496;28;20508;-62
2021/08/31 02:11:11;;;;;;;3.87;2.80;;;14.60;99.90;;;;;;4993673;28;20446;-62
2021/08/31 02:13:38;;;;;;;3.40;3.10;;;14.60;99.90;;;;;;4993643;28;20450;-62
2021/08/31 02:16:08;;;;;;;3.97;3.43;;;14.60;99.90;;;;;;4993596;28;20470;-62
2021/08/31 02:18:38;;;;;;;4.17;2.80;;;14.60;99.90;;;;;;4993198;28;20480;-62
2021/08/31 02:21:06;;;;;;;3.83;3.03;;;14.50;99.90;;;;;;4993296;28;20516;-62
2021/08/31 02:23:33;;;;;;;3.40;3.10;;;14.50;99.90;;;;;;4993589;28;20455;-62
2021/08/31 02:26:00;;;;;;;4.63;3.50;;;14.50;99.90;;;;;;4991948;28;21045;-62
2021/08/31 02:28:27;;;;;;;7.20;4.00;;;14.50;99.90;;;;;;4993503;28;20458;-62
2021/08/31 02:30:54;;;;;;;4.97;3.23;;;14.50;99.90;;;;;;4993354;28;20454;-62
2021/08/31 02:33:21;;;;;;;4.73;3.40;;;14.60;99.90;;;;;;4993733;28;20459;-62
2021/08/31 02:35:49;;;;;;;3.53;3.17;;;14.60;99.90;;;;;;4992884;28;20575;-62
2021/08/31 02:38:16;;;;;;;5.27;2.87;;;14.60;99.90;;;;;;4993282;28;20557;-62
2021/08/31 02:40:43;;;;;;;3.77;3.20;;;14.50;99.90;;;;;;4992380;28;20458;-62
2021/08/31 02:43:10;;;;;;;3.60;2.90;;;14.50;99.90;;;;;;4992517;28;20454;-62
2021/08/31 02:45:37;;;;;;;5.33;3.37;;;14.40;99.90;;;;;;4992471;28;20525;-62
2021/08/31 02:48:05;;;;;;;3.40;3.10;;;14.50;99.90;;;;;;4993340;28;20505;-62
2021/08/31 02:50:32;;;;;;;3.17;2.87;;;14.40;99.90;;;;;;4992746;28;20509;-62
2021/08/31 02:53:00;;;;;;;3.93;3.23;;;14.40;99.90;;;;;;4992725;28;20455;-62
2021/08/31 02:55:27;;;;;;;6.60;3.60;;;14.40;99.90;;;;;;4992281;28;20466;-62
2021/08/31 02:57:55;;;;;;;3.80;3.30;;;14.40;99.90;;;;;;4992907;28;20547;-62
2021/08/31 03:00:28;;;;;;;4.47;3.40;;;14.40;99.90;;;;;;4992362;28;20515;-62
2021/08/31 03:02:55;;;;;;;4.10;3.70;;;14.50;99.90;;;;;;4992708;28;20913;-62
2021/08/31 03:05:22;;;;;;;8.70;6.50;;;14.50;99.90;;;;;;5015984;23;20490;-57
2021/08/31 03:07:51;;;;;;;7.47;6.70;;;14.50;99.90;;;;;;5011721;28;20527;-55
2021/08/31 03:10:20;;;;;;;7.60;6.20;;;14.50;99.90;;;;;;5011117;28;20469;-55
2021/08/31 03:12:48;;;;;;;7.80;5.80;;;14.50;99.90;;;;;;5012184;28;20496;-55
2021/08/31 03:15:14;;;;;;;7.20;5.40;;;14.40;99.90;;;;;;5012146;28;20507;-55
2021/08/31 03:17:41;;;;;;;5.80;5.17;;;14.40;99.90;;;;;;5031659;28;20543;-55
2021/08/31 03:20:09;;;;;;;6.17;5.17;;;14.50;99.90;;;;;;5031670;28;20456;-55
2021/08/31 03:22:37;;;;;;;5.93;4.90;;;14.50;99.90;;;;;;5030905;28;20525;-55
2021/08/31 03:25:04;;;;;;;7.73;5.90;;;14.40;99.90;;;;;;5030533;28;20511;-56
2021/08/31 03:27:32;;;;;;;6.87;5.60;;;14.40;99.90;;;;;;5031310;28;20469;-56
2021/08/31 03:30:03;;;;;;;11.80;8.10;;;14.40;99.90;;;;;;5030514;28;20453;-55
2021/08/31 03:32:30;;;;;;;10.07;7.97;;;14.40;99.90;;;;;;5030869;28;20502;-55
2021/08/31 03:34:57;;;;;;;11.70;8.30;;;14.50;99.90;;;;;;5031386;28;20457;-55
2021/08/31 03:37:24;;;;;;;13.50;9.80;;;14.50;99.90;;;;;;5031494;28;20488;-55
2021/08/31 03:39:51;;;;;;;12.30;8.50;;;14.50;99.90;;;;;;5031071;28;20517;-56
2021/08/31 03:42:18;;;;;;;10.90;7.60;;;14.60;99.90;;;;;;5031444;28;20444;-54
2021/08/31 03:44:46;;;;;;;7.40;6.03;;;14.60;99.90;;;;;;5031023;28;20444;-55
2021/08/31 03:47:13;;;;;;;7.63;6.37;;;14.60;99.90;;;;;;5031392;28;20522;-55
2021/08/31 03:49:40;;;;;;;6.37;5.10;;;14.60;99.90;;;;;;5030918;28;20514;-56
2021/08/31 03:52:07;;;;;;;6.33;5.23;;;14.60;99.90;;;;;;5031542;28;20908;-57
2021/08/31 03:54:34;;;;;;;8.60;5.80;;;14.60;99.90;;;;;;5031452;28;20945;-55
2021/08/31 03:57:02;;;;;;;9.27;6.50;;;14.60;99.90;;;;;;5030962;28;20480;-56
2021/08/31 03:59:29;;;;;;;7.43;5.43;;;14.60;99.90;;;;;;5031213;28;20475;-57
2021/08/31 04:01:57;;;;;;;9.63;6.50;;;14.60;99.90;;;;;;5031285;28;20934;-55
2021/08/31 04:04:24;;;;;;;9.90;7.53;;;14.60;99.90;;;;;;5030725;28;20453;-55
2021/08/31 04:06:51;;;;;;;10.13;7.77;;;14.60;99.90;;;;;;5027490;28;20526;-57
2021/08/31 04:09:19;;;;;;;10.20;6.23;;;14.50;99.90;;;;;;5031094;28;20441;-55
2021/08/31 04:11:46;;;;;;;9.03;7.13;;;14.50;99.90;;;;;;5030715;28;20456;-57
2021/08/31 04:14:12;;;;;;;8.60;5.37;;;14.50;99.90;;;;;;5030847;28;20441;-55
2021/08/31 04:16:40;;;;;;;11.00;7.60;;;14.50;99.90;;;;;;5030742;28;20530;-56
2021/08/31 04:19:08;;;;;;;11.70;9.20;;;14.50;99.90;;;;;;5030848;28;20448;-54
2021/08/31 04:21:36;;;;;;;10.90;8.70;;;14.50;99.90;;;;;;5031541;28;20444;-54
2021/08/31 04:24:03;;;;;;;14.20;9.70;;;14.60;99.90;;;;;;5034315;28;20440;-55
2021/08/31 04:26:31;;;;;;;12.80;9.67;;;14.70;99.90;;;;;;5033686;28;20550;-55
2021/08/31 04:28:58;;;;;;;14.60;12.87;;;14.50;99.90;;;;;;5033092;28;20468;-56
2021/08/31 04:31:25;;;;;;;13.70;10.80;;;14.50;99.90;;;;;;5028635;28;20456;-55
2021/08/31 04:33:53;;;;;;;10.50;9.40;;;14.50;99.90;;;;;;5034262;28;20455;-56
2021/08/31 04:36:21;;;;;;;9.97;8.93;;;14.50;99.90;;;;;;5033850;28;20537;-57
2021/08/31 04:38:48;;;;;;;10.87;7.03;;;14.50;99.90;;;;;;5034257;28;20526;-55
2021/08/31 04:41:15;;;;;;;8.63;6.50;;;14.50;99.90;;;;;;5023222;28;20448;-55
2021/08/31 04:43:42;;;;;;;6.37;5.67;;;14.50;99.90;;;;;;5033459;28;20502;-56
2021/08/31 04:46:10;;;;;;;6.60;5.90;;;14.50;99.90;;;;;;5032978;28;20476;-55
2021/08/31 04:48:37;;;;;;;5.50;5.00;;;14.50;99.90;;;;;;5029967;28;20527;-55
2021/08/31 04:51:05;;;;;;;5.17;4.43;;;14.50;99.90;;;;;;5029096;28;20535;-55
2021/08/31 04:53:33;;;;;;;4.63;4.23;;;14.40;99.90;;;;;;5033046;28;20448;-55
2021/08/31 04:56:00;;;;;;;5.77;4.70;;;14.30;99.90;;;;;;5033112;28;20510;-56
2021/08/31 04:58:27;;;;;;;8.33;5.67;;;14.20;99.90;;;;;;5032000;28;20541;-56
2021/08/31 05:00:54;;;;;;;9.20;8.20;;;14.20;99.90;;;;;;5031243;28;20514;-54
2021/08/31 05:03:22;;;;;;;8.77;7.97;;;14.20;99.90;;;;;;5029092;28;20524;-54
2021/08/31 05:05:49;;;;;;;9.80;8.80;;;14.30;99.90;;;;;;5032617;28;20484;-54
2021/08/31 05:08:16;;;;;;;7.20;6.50;;;14.30;99.90;;;;;;5032545;28;20445;-54
2021/08/31 05:10:48;;;;;;;5.67;4.43;;;14.30;99.90;;;;;;5031337;28;20456;-53
2021/08/31 05:13:15;;;;;;;5.83;2.90;;;14.30;99.90;;;;;;5031921;28;20487;-54
2021/08/31 05:15:42;;;;;;;4.67;4.27;;;14.30;99.90;;;;;;5032690;28;20473;-54
2021/08/31 05:18:09;;;;;;;5.77;5.20;;;14.30;99.90;;;;;;5032679;28;20554;-53
2021/08/31 05:20:36;;;;;;;3.87;3.47;;;14.30;99.90;;;;;;5032401;28;20451;-56
2021/08/31 05:23:03;;;;;;;2.20;2.00;;;14.20;99.90;;;;;;5032727;28;21142;-56
2021/08/31 05:25:30;;;;;;;3.20;2.90;;;14.20;99.90;;;;;;5032742;28;20480;-55
2021/08/31 05:27:59;;;;;;;3.50;3.00;;;14.20;99.90;;;;;;5031610;28;20495;-56
2021/08/31 05:30:26;;;;;;;2.87;2.60;;;14.20;99.90;;;;;;5032204;28;20507;-55
2021/08/31 05:32:52;;;;;;;3.10;2.80;;;14.30;99.90;;;;;;5032038;28;21117;-56
2021/08/31 05:35:19;;;;;;;2.33;2.13;;;14.40;99.90;;;;;;5031921;28;20455;-57
2021/08/31 05:37:46;;;;;;;2.80;2.60;;;14.50;99.90;;;;;;5032141;28;20487;-55
2021/08/31 05:40:13;;;;;;;3.57;2.70;;;14.50;99.90;;;;;;5032119;28;21009;-56
2021/08/31 05:42:40;;;;;;;3.20;2.90;;;14.50;99.90;;;;;;5026861;28;20871;-55
2021/08/31 05:45:11;;;;;;;3.50;2.97;;;14.50;99.90;;;;;;5032172;28;20456;-56
2021/08/31 05:47:38;;;;;;;2.30;2.10;;;14.50;99.90;;;;;;5031689;28;20985;-55
2021/08/31 05:50:05;;;;;;;2.60;2.00;;;14.50;99.90;;;;;;5032127;28;20441;-55
2021/08/31 05:52:32;;;;;;;3.23;2.40;;;14.60;99.90;;;;;;5031617;28;20536;-55
2021/08/31 05:54:59;;;;;;;2.37;2.17;;;14.60;99.90;;;;;;5032270;28;20444;-55
2021/08/31 05:57:26;;;;;;;2.97;2.30;;;14.60;99.90;;;;;;5031789;28;20906;-55
2021/08/31 05:59:54;;;;;;;3.10;2.80;;;14.60;99.90;;;;;;5031420;28;20449;-57
2021/08/31 06:02:22;;;;;;;4.13;3.30;;;14.60;99.90;;;;;;5030953;28;20490;-54
2021/08/31 06:04:49;;;;;;;2.70;2.50;;;14.70;99.90;;;;;;5031329;28;20452;-55
2021/08/31 06:07:16;;;;;;;4.20;2.70;;;14.80;99.90;;;;;;5031045;28;20480;-54
2021/08/31 06:09:43;;;;;;;4.30;2.80;;;14.80;99.90;;;;;;5031694;28;20456;-54
2021/08/31 06:12:12;;;;;;;2.40;2.20;;;14.90;99.90;;;;;;5030880;28;20860;-54
2021/08/31 06:14:39;;;;;;;2.23;2.03;;;15.00;99.90;;;;;;5032012;28;20453;-54
2021/08/31 06:17:07;;;;;;;1.80;1.70;;;15.10;99.90;;;;;;5031828;28;20468;-54
2021/08/31 06:19:36;;;;;;;2.07;1.87;;;15.20;99.90;;;;;;5031623;28;20538;-54
2021/08/31 06:22:04;;;;;;;3.10;1.57;;;15.30;99.90;;;;;;5031399;28;20507;-54
2021/08/31 06:24:31;;;;;;;1.87;1.67;;;15.60;99.90;;;;;;5027617;28;20526;-54
2021/08/31 06:26:58;;;;;;;2.40;2.20;;;15.70;99.90;;;;;;5030844;28;20468;-54
2021/08/31 06:29:25;;;;;;;2.97;2.60;;;15.80;99.90;;;;;;5031304;28;20448;-54
2021/08/31 06:31:52;;;;;;;3.93;3.60;;;15.90;99.90;;;;;;5031172;28;20440;-54
2021/08/31 06:34:19;;;;;;;3.30;3.00;;;16.00;99.90;;;;;;5031248;28;20445;-54
2021/08/31 06:36:48;;;;;;;3.90;3.60;;;16.10;99.90;;;;;;5031052;28;20472;-54
2021/08/31 06:39:15;;;;;;;4.23;3.93;;;16.10;99.90;;;;;;5031207;28;20508;-54
2021/08/31 06:41:42;;;;;;;3.50;3.20;;;15.90;99.90;;;;;;5031652;28;20507;-54
2021/08/31 06:44:09;;;;;;;2.73;2.53;;;16.00;99.90;;;;;;5027611;28;20502;-54
2021/08/31 06:46:37;;;;;;;3.93;2.23;;;16.00;99.90;;;;;;5031168;28;20480;-54
2021/08/31 06:49:04;;;;;;;1.87;1.77;;;16.00;99.90;;;;;;5031500;28;20436;-53
2021/08/31 06:51:32;;;;;;;1.73;1.60;;;16.10;99.90;;;;;;5031519;28;20514;-53
2021/08/31 06:54:00;;;;;;;1.40;1.30;;;16.00;99.90;;;;;;5031204;28;20452;-54
2021/08/31 06:56:27;;;;;;;1.80;1.70;;;15.90;99.90;;;;;;5031891;28;20479;-54
2021/08/31 06:58:54;;;;;;;1.60;1.50;;;15.90;99.90;;;;;;5032042;28;20476;-54
2021/08/31 07:01:21;;;;;;;2.57;1.80;;;15.80;99.90;;;;;;5031831;28;20494;-54
2021/08/31 07:03:48;;;;;;;1.80;1.70;;;15.70;99.90;;;;;;5032243;28;20452;-54
2021/08/31 07:06:15;;;;;;;1.53;1.43;;;15.70;99.90;;;;;;5031994;28;20484;-54
2021/08/31 07:08:42;;;;;;;1.33;1.23;;;15.70;99.90;;;;;;5030460;28;20515;-54
2021/08/31 07:11:12;;;;;;;1.80;1.30;;;15.60;99.90;;;;;;5031558;28;20483;-54
2021/08/31 07:13:39;;;;;;;2.37;2.17;;;15.60;99.90;;;;;;5031768;28;20455;-54
2021/08/31 07:16:06;;;;;;;2.40;2.00;;;15.60;99.90;;;;;;5031462;28;20464;-54
2021/08/31 07:18:33;;;;;;;1.90;1.80;;;15.60;99.90;;;;;;5031502;28;21020;-54
2021/08/31 07:21:01;;;;;;;1.50;1.40;;;15.80;99.90;;;;;;5031153;28;20445;-56
2021/08/31 07:23:28;;;;;;;1.50;1.40;;;15.80;99.90;;;;;;5031598;28;20449;-54
2021/08/31 07:25:55;;;;;;;1.40;1.30;;;15.60;99.90;;;;;;5031312;28;20464;-54
2021/08/31 07:28:23;;;;;;;2.50;1.50;;;15.60;99.90;;;;;;5031274;28;20441;-54
2021/08/31 07:30:50;;;;;;;1.93;1.83;;;15.60;99.90;;;;;;5026400;28;20452;-54
2021/08/31 07:33:17;;;;;;;3.57;1.80;;;15.70;99.90;;;;;;5029566;28;20457;-54
2021/08/31 07:35:46;;;;;;;2.23;1.70;;;15.90;99.90;;;;;;5029903;28;20469;-54
2021/08/31 07:38:13;;;;;;;2.40;1.80;;;15.80;99.90;;;;;;5030094;28;20580;-54
2021/08/31 07:40:40;;;;;;;1.70;1.57;;;16.00;99.90;;;;;;5029862;28;21020;-54
2021/08/31 07:43:07;;;;;;;1.60;1.50;;;16.20;99.90;;;;;;5030378;28;20478;-54
2021/08/31 07:45:36;;;;;;;2.60;1.40;;;16.40;99.90;;;;;;5030224;28;20460;-54
2021/08/31 07:48:03;;;;;;;1.73;1.57;;;16.60;99.90;;;;;;5030111;28;20507;-54
2021/08/31 07:50:30;;;;;;;1.47;1.37;;;16.80;99.90;;;;;;5030100;28;20448;-54
2021/08/31 07:52:57;;;;;;;2.60;1.27;;;16.70;99.90;;;;;;5030142;28;20471;-54
2021/08/31 07:55:25;;;;;;;2.30;1.33;;;16.90;99.90;;;;;;5030802;28;20436;-56
2021/08/31 07:57:52;;;;;;;1.20;1.10;;;17.20;99.90;;;;;;5034044;28;20444;-56
2021/08/31 08:00:19;;;;;;;1.63;1.10;;;17.70;99.90;;;;;;5034266;28;20444;-56
2021/08/31 08:02:47;;;;;;;1.73;1.17;;;18.10;99.90;;;;;;5034139;28;20510;-55
2021/08/31 08:05:15;;;;;;;1.20;1.10;;;18.70;99.90;;;;;;5034235;28;20499;-57
2021/08/31 08:07:42;;;;;;;1.30;1.20;;;19.20;99.90;;;;;;5034221;28;20463;-59
2021/08/31 08:10:11;;;;;;;1.50;1.40;;;19.60;99.90;;;;;;5034211;28;20502;-56
2021/08/31 08:12:38;;;;;;;1.93;1.40;;;19.90;99.90;;;;;;5033937;28;20510;-56
2021/08/31 08:15:06;;;;;;;1.40;1.30;;;19.70;99.90;;;;;;5033817;28;20490;-57
2021/08/31 08:17:33;;;;;;;1.00;0.90;;;19.80;99.90;;;;;;5033809;28;20981;-56
2021/08/31 08:20:01;;;;;;;1.33;1.23;;;19.80;99.90;;;;;;5034140;28;20526;-57
2021/08/31 08:22:29;;;;;;;1.50;1.30;;;20.10;99.90;;;;;;5034082;28;20451;-57
2021/08/31 08:24:56;;;;;;;1.73;1.60;;;20.60;99.90;;;;;;5034095;28;20448;-56
2021/08/31 08:27:23;;;;;;;2.73;1.50;;;21.00;99.90;;;;;;5033907;28;20519;-57
2021/08/31 08:29:50;;;;;;;2.10;1.90;;;20.80;99.90;;;;;;5033887;28;20436;-58
2021/08/31 08:32:17;;;;;;;1.67;1.40;;;20.70;99.90;;;;;;5029609;28;20440;-56
2021/08/31 08:34:44;;;;;;;2.80;1.67;;;20.60;99.90;;;;;;5033963;28;20453;-57
2021/08/31 08:37:13;;;;;;;1.73;1.63;;;20.40;99.90;;;;;;5034212;28;20526;-55
2021/08/31 08:39:40;;;;;;;1.70;1.30;;;21.10;99.90;;;;;;5033155;28;21073;-56
2021/08/31 08:42:08;;;;;;;1.70;1.10;;;21.90;99.90;;;;;;5029524;28;20444;-56
2021/08/31 08:44:36;;;;;;;2.37;1.60;;;22.60;99.90;;;;;;5033731;28;20444;-56
2021/08/31 08:47:03;;;;;;;3.63;1.70;;;23.30;99.90;;;;;;5033443;28;20525;-57
2021/08/31 08:49:31;;;;;;;1.80;1.70;;;23.70;99.90;;;;;;5029266;28;20444;-56
2021/08/31 08:52:00;;;;;;;2.00;1.90;;;24.00;99.90;;;;;;5029669;28;20449;-55
2021/08/31 08:54:29;;;;;;;2.20;2.00;;;24.30;99.90;;;;;;5032511;28;20514;-55
2021/08/31 08:56:57;;;;;;;1.43;1.30;;;24.40;99.90;;;;;;5034459;28;20468;-55
2021/08/31 08:59:25;;;;;;;2.00;1.90;;;23.90;99.90;;;;;;5030953;28;20484;-55
2021/08/31 09:01:54;;;;;;;2.00;1.87;;;23.70;99.90;;;;;;5032731;28;20456;-56
2021/08/31 09:04:50;;;;;;;1.53;1.43;;;22.70;99.90;;;;;;5032510;28;20502;-57
2021/08/31 09:07:21;;;;;;;1.60;1.50;;;22.30;99.90;;;;;;5029408;28;20483;-55
2021/08/31 09:09:50;;;;;;;1.93;1.80;;;22.30;99.90;;;;;;5029753;28;20444;-55
2021/08/31 09:12:31;;;;;;;1.70;1.60;;;22.80;99.90;;;;;;5032743;28;20445;-55
2021/08/31 09:15:20;;;;;;;1.70;1.60;;;23.70;99.90;;;;;;5033038;28;20455;-56
2021/08/31 09:18:10;;;;;;;1.87;1.77;;;24.20;99.90;;;;;;5032612;28;20451;-55
2021/08/31 09:20:40;;;;;;;1.77;1.67;;;24.80;99.90;;;;;;5036626;23;20490;-64
2021/08/31 09:23:09;;;;;;;1.63;1.53;;;24.90;99.90;;;;;;5001742;28;20493;-65
2021/08/31 09:25:38;;;;;;;2.77;1.87;;;25.40;99.90;;;;;;4994394;28;20454;-64
2021/08/31 09:28:20;;;;;;;2.33;2.13;;;25.50;99.90;;;;;;4994562;28;20453;-66
2021/08/31 09:30:55;;;;;;;2.00;1.90;;;25.50;99.90;;;;;;4994591;28;20471;-64
2021/08/31 09:33:22;;;;;;;1.73;1.63;;;25.60;99.90;;;;;;5004086;28;20441;-64
2021/08/31 09:36:05;;;;;;;1.50;1.40;;;26.00;99.90;;;;;;5012916;28;20875;-64
2021/08/31 09:38:56;;;;;;;2.63;1.80;;;26.30;99.90;;;;;;5008997;28;20454;-64
2021/08/31 09:41:35;;;;;;;1.87;1.77;;;26.40;99.90;;;;;;4985156;28;20517;-65
2021/08/31 09:44:05;;;;;;;2.27;2.13;;;26.20;99.90;;;;;;5012754;28;20441;-63
2021/08/31 09:46:49;;;;;;;2.23;2.13;;;25.70;99.90;;;;;;5012859;28;20511;-64
2021/08/31 09:49:25;;;;;;;2.50;2.30;;;25.20;99.90;;;;;;5012423;28;20441;-63
2021/08/31 09:52:05;;;;;;;2.40;2.27;;;25.20;99.90;;;;;;5012387;28;20453;-63
2021/08/31 09:54:36;;;;;;;2.37;2.17;;;24.10;99.90;;;;;;5000279;28;20796;-64
2021/08/31 09:57:28;;;;;;;2.70;2.50;;;24.40;99.90;;;;;;4993408;28;20442;-62
2021/08/31 09:59:56;;;;;;;2.60;2.20;;;24.50;99.90;;;;;;4993225;28;20487;-63
2021/08/31 10:02:23;;;;;;;3.10;2.33;;;24.60;99.90;;;;;;4993045;28;20442;-62
2021/08/31 10:04:52;;;;;;;4.20;3.80;;;23.40;99.90;;;;;;4993477;28;20505;-63
2021/08/31 10:07:22;;;;;;;4.80;4.40;;;22.20;99.90;;;;;;4993227;28;20497;-62
2021/08/31 10:09:50;;;;;;;5.40;4.40;;;20.40;99.90;;;;;;4996878;28;21258;-62
2021/08/31 10:12:20;;;;;;;4.00;3.60;;;19.40;99.90;;;;;;4993014;28;20446;-62
2021/08/31 10:14:53;;;;;;;4.70;4.30;;;19.30;99.90;;;;;;4993480;28;20447;-62
2021/08/31 10:17:24;;;;;;;4.80;4.40;;;19.30;99.90;;;;;;5016775;28;20938;-62
2021/08/31 10:19:52;;;;;;;5.07;4.57;;;19.00;99.90;;;;;;5000680;28;20485;-62
2021/08/31 10:22:21;;;;;;;4.20;3.80;;;19.20;99.90;;;;;;4994057;28;20438;-62
2021/08/31 10:24:49;;;;;;;4.43;4.03;;;19.20;99.90;;;;;;4998263;28;20447;-63
2021/08/31 10:27:30;;;;;;;5.80;4.50;;;19.10;99.90;;;;;;4993665;28;20857;-62
2021/08/31 10:30:34;;;;;;;4.77;4.27;;;19.00;99.90;;;;;;4989891;28;20525;-62
2021/08/31 10:33:04;;;;;;;5.60;3.80;;;19.20;99.90;;;;;;4993968;28;20451;-62
2021/08/31 10:35:55;;;;;;;5.70;4.53;;;19.00;99.90;;;;;;4992669;28;20509;-62
2021/08/31 10:38:54;;;;;;;5.77;5.27;;;19.10;99.90;;;;;;4989169;28;20450;-62
2021/08/31 10:41:45;;;;;;;5.33;4.30;;;19.50;99.90;;;;;;4961532;28;20501;-62
2021/08/31 10:44:15;;;;;;;4.60;4.00;;;19.90;99.90;;;;;;4992216;28;20447;-62
2021/08/31 10:47:05;;;;;;;5.70;4.53;;;20.10;99.90;;;;;;4993307;28;20458;-62
2021/08/31 10:49:32;;;;;;;5.63;4.40;;;20.70;99.90;;;;;;4992975;28;20449;-62
2021/08/31 10:52:07;;;;;;;6.63;3.90;;;20.90;99.90;;;;;;4992252;28;20585;-62
2021/08/31 10:54:50;;;;;;;5.07;4.50;;;21.30;99.90;;;;;;4992512;28;20446;-62
2021/08/31 10:57:43;;;;;;;4.77;4.37;;;21.50;99.90;;;;;;5009932;28;20457;-61
2021/08/31 11:00:51;;;;;;;4.50;4.10;;;21.10;99.90;;;;;;5010546;28;20481;-61
2021/08/31 11:03:39;;;;;;;4.07;3.67;;;21.40;99.90;;;;;;4975160;28;20484;-61
2021/08/31 11:06:31;;;;;;;4.27;3.87;;;22.00;99.90;;;;;;4988395;28;20443;-62
2021/08/31 11:09:18;;;;;;;3.60;3.13;;;21.50;99.90;;;;;;5009178;28;20446;-61
2021/08/31 11:12:05;;;;;;;5.20;4.37;;;21.20;99.90;;;;;;5010079;28;21328;-62
2021/08/31 11:14:48;;;;;;;4.00;3.60;;;20.90;99.90;;;;;;4999518;28;20546;-62
2021/08/31 11:17:33;;;;;;;4.13;3.73;;;20.70;99.90;;;;;;4999232;28;20453;-62
2021/08/31 11:20:18;;;;;;;4.00;3.53;;;20.40;99.90;;;;;;5009841;28;20477;-62
2021/08/31 11:22:46;;;;;;;4.07;3.63;;;20.30;99.90;;;;;;5010512;28;20450;-62
2021/08/31 11:25:13;;;;;;;3.63;3.33;;;20.40;99.90;;;;;;5010581;28;20495;-61
2021/08/31 11:27:52;;;;;;;4.30;4.00;;;19.90;99.90;;;;;;5007806;28;20446;-61
2021/08/31 11:30:19;;;;;;;4.43;3.97;;;19.40;99.90;;;;;;4991433;28;20509;-63
2021/08/31 11:32:47;;;;;;;3.80;3.50;;;19.10;99.90;;;;;;4991849;28;20442;-61
2021/08/31 11:35:14;;;;;;;4.20;3.80;;;18.70;99.90;;;;;;4991702;28;20513;-61
2021/08/31 11:37:51;;;;;;;4.33;3.60;;;18.70;99.90;;;;;;4991794;28;20512;-61
2021/08/31 11:40:26;;;;;;;4.03;3.03;;;18.20;99.90;;;;;;4991419;28;21010;-62
2021/08/31 11:42:56;;;;;;;3.80;3.40;;;18.00;99.90;;;;;;4991394;28;20512;-61
2021/08/31 11:45:36;;;;;;;4.77;3.20;;;18.00;99.90;;;;;;4991664;28;20936;-61
2021/08/31 11:48:04;;;;;;;4.30;3.53;;;18.60;99.90;;;;;;4991786;28;20447;-61
2021/08/31 11:50:31;;;;;;;3.80;3.40;;;19.20;99.90;;;;;;4996139;28;20982;-61
2021/08/31 11:53:12;;;;;;;4.60;3.87;;;19.60;99.90;;;;;;5010026;28;20868;-62
2021/08/31 11:55:39;;;;;;;4.20;3.27;;;19.60;99.90;;;;;;4990114;28;20874;-61
2021/08/31 11:58:08;;;;;;;3.97;3.20;;;19.10;99.90;;;;;;4991765;28;20496;-62
2021/08/31 12:00:43;;;;;;;4.60;2.90;;;19.40;99.90;;;;;;5003003;28;21066;-62
2021/08/31 12:03:23;;;;;;;2.77;2.57;;;19.80;99.90;;;;;;4987800;28;20507;-61
2021/08/31 12:05:55;;;;;;;2.23;2.03;;;19.60;99.90;;;;;;4991573;28;20553;-61
2021/08/31 12:08:24;;;;;;;1.97;1.87;;;19.30;99.90;;;;;;4988176;28;20501;-62
2021/08/31 12:10:54;;;;;;;1.60;1.50;;;19.40;99.90;;;;;;4991389;28;20601;-62
2021/08/31 12:13:23;;;;;;;1.93;1.83;;;19.80;99.90;;;;;;4991530;28;20446;-61
2021/08/31 12:15:54;;;;;;;2.20;1.70;;;20.30;99.90;;;;;;5003176;28;20468;-63
2021/08/31 12:18:25;;;;;;;1.70;1.60;;;20.70;99.90;;;;;;5009727;28;20499;-62
2021/08/31 12:20:53;;;;;;;1.70;1.60;;;20.80;99.90;;;;;;4987076;28;20524;-62
2021/08/31 12:23:31;;;;;;;1.60;1.50;;;20.60;99.90;;;;;;4991508;28;20529;-61
2021/08/31 12:25:58;;;;;;;1.80;1.70;;;20.40;99.90;;;;;;4991588;28;20979;-62
2021/08/31 12:28:27;;;;;;;1.70;1.60;;;20.50;99.90;;;;;;4991202;28;20454;-60
2021/08/31 12:30:54;;;;;;;1.77;1.57;;;20.50;99.90;;;;;;4990874;28;20466;-60
2021/08/31 12:33:26;;;;;;;1.67;1.57;;;20.40;99.90;;;;;;4991079;28;20438;-60
2021/08/31 12:36:02;;;;;;;1.70;1.60;;;20.60;99.90;;;;;;4991276;28;20501;-60
2021/08/31 12:38:33;;;;;;;1.60;1.50;;;20.60;99.90;;;;;;4991254;28;20536;-59
2021/08/31 12:41:07;;;;;;;2.00;1.80;;;20.50;99.90;;;;;;4987047;28;20897;-59
2021/08/31 12:43:47;;;;;;;1.70;1.60;;;20.40;99.90;;;;;;5011137;28;20959;-60
2021/08/31 12:46:22;;;;;;;1.80;1.70;;;20.50;99.90;;;;;;5013177;28;20445;-60
2021/08/31 12:48:50;;;;;;;3.57;1.73;;;20.60;99.90;;;;;;5013163;28;20446;-60
2021/08/31 12:51:31;;;;;;;1.73;1.63;;;20.70;99.90;;;;;;4998240;28;20466;-60
2021/08/31 12:53:58;;;;;;;1.90;1.80;;;20.70;99.90;;;;;;4994634;28;20489;-60
2021/08/31 12:56:26;;;;;;;2.03;1.83;;;21.00;99.90;;;;;;4994532;28;20445;-59
2021/08/31 12:59:04;;;;;;;1.90;1.80;;;20.90;99.90;;;;;;4994840;28;20454;-60